createdAt,value
2018-05-04T00:01:02.532Z,93768.15
2018-05-04T00:03:31.012Z,93761.19
2018-05-04T00:05:58.418Z,93764.72
2018-05-04T00:08:28.363Z,93758.37
2018-05-04T00:10:56.803Z,93760.69
2018-05-04T00:13:25.555Z,93751.37
2018-05-04T00:15:55.415Z,93750.46
2018-05-04T00:18:23.840Z,93758.83
2018-05-04T00:20:52.331Z,93750.53
2018-05-04T00:23:20.743Z,93747.00
2018-05-04T00:25:49.195Z,93743.88
2018-05-04T00:28:17.624Z,93752.96
2018-05-04T00:30:46.040Z,93752.23
2018-05-04T00:33:14.443Z,93749.11
2018-05-04T00:35:43.223Z,93737.79
2018-05-04T00:38:12.714Z,93749.80
2018-05-04T00:40:41.122Z,93751.34
2018-05-04T00:43:09.557Z,93750.13
2018-05-04T00:45:37.947Z,93755.56
2018-05-04T00:48:05.264Z,93743.44
2018-05-04T00:50:35.432Z,93750.01
2018-05-04T00:53:02.775Z,93749.80
2018-05-04T00:55:33.863Z,93757.27
2018-05-04T00:58:02.376Z,93755.36
2018-05-04T01:00:29.682Z,93755.16
2018-05-04T01:02:59.196Z,93760.41
2018-05-04T01:05:26.524Z,93758.56
2018-05-04T01:07:56.799Z,93759.58
2018-05-04T01:10:24.173Z,93753.51
2018-05-04T01:12:54.715Z,93753.13
2018-05-04T01:15:22.101Z,93746.73
2018-05-04T01:17:52.086Z,93745.02
2018-05-04T01:20:19.451Z,93745.09
2018-05-04T01:22:51.585Z,93752.56
2018-05-04T01:25:20.080Z,93751.97
2018-05-04T01:27:48.520Z,93752.26
2018-05-04T01:30:15.813Z,93763.98
2018-05-04T01:32:47.798Z,93761.23
2018-05-04T01:35:17.763Z,93774.57
2018-05-04T01:37:46.175Z,93777.27
2018-05-04T01:40:14.650Z,93771.80
2018-05-04T01:42:43.082Z,93768.45
2018-05-04T01:45:11.535Z,93772.98
2018-05-04T01:47:39.952Z,93776.02
2018-05-04T01:50:07.297Z,93780.23
2018-05-04T01:52:37.274Z,93783.52
2018-05-04T01:55:05.681Z,93787.79
2018-05-04T01:57:34.108Z,93793.69
2018-05-04T02:00:02.517Z,93790.63
2018-05-04T02:02:32.383Z,93790.32
2018-05-04T02:05:00.855Z,93798.11
2018-05-04T02:07:31.305Z,93799.13
2018-05-04T02:10:01.730Z,93801.70
2018-05-04T02:12:32.187Z,93798.48
2018-05-04T02:15:00.638Z,93803.95
2018-05-04T02:17:29.055Z,93802.32
2018-05-04T02:19:57.480Z,93797.45
2018-05-04T02:22:25.874Z,93791.39
2018-05-04T02:24:54.332Z,93794.04
2018-05-04T02:27:22.776Z,93793.92
2018-05-04T02:29:51.196Z,93790.95
2018-05-04T02:32:19.675Z,93791.83
2018-05-04T02:34:48.365Z,93789.39
2018-05-04T02:37:16.719Z,93788.14
2018-05-04T02:39:50.213Z,93795.64
2018-05-04T02:42:18.631Z,93785.16
2018-05-04T02:44:47.040Z,93787.77
2018-05-04T02:47:15.471Z,93786.45
2018-05-04T02:49:43.871Z,93786.58
2018-05-04T02:52:12.291Z,93787.59
2018-05-04T02:54:42.228Z,93784.59
2018-05-04T02:57:10.637Z,93783.57
2018-05-04T02:59:39.136Z,93791.61
2018-05-04T03:02:07.560Z,93790.61
2018-05-04T03:04:37.979Z,93788.05
2018-05-04T03:07:07.802Z,93789.86
2018-05-04T03:09:39.876Z,93789.95
2018-05-04T03:12:08.315Z,93783.86
2018-05-04T03:14:38.124Z,93788.70
2018-05-04T03:17:06.577Z,93787.92
2018-05-04T03:19:36.485Z,93787.80
2018-05-04T03:22:04.932Z,93782.08
2018-05-04T03:24:33.804Z,93779.05
2018-05-04T03:27:02.174Z,93782.30
2018-05-04T03:29:32.611Z,93779.86
2018-05-04T03:32:01.071Z,93778.98
2018-05-04T03:34:29.482Z,93778.98
2018-05-04T03:36:57.939Z,93786.67
2018-05-04T03:39:26.339Z,93795.35
2018-05-04T03:41:56.026Z,93788.03
2018-05-04T03:44:24.503Z,93782.75
2018-05-04T03:46:56.654Z,93778.28
2018-05-04T03:49:25.475Z,93777.98
2018-05-04T03:51:55.683Z,93785.84
2018-05-04T03:54:23.980Z,93784.94
2018-05-04T04:10:19.560Z,93792.52
2018-05-04T04:12:47.980Z,93796.87
2018-05-04T04:15:16.399Z,93787.96
2018-05-04T04:17:44.843Z,93793.19
2018-05-04T04:20:14.838Z,93786.33
2018-05-04T04:22:45.105Z,93789.81
2018-05-04T04:25:15.037Z,93791.98
2018-05-04T04:27:43.174Z,93796.77
2018-05-04T04:30:11.646Z,93796.67
2018-05-04T04:32:40.041Z,93796.19
2018-05-04T04:35:09.908Z,93802.22
2018-05-04T04:37:38.287Z,93805.77
2018-05-04T04:40:06.667Z,93807.98
2018-05-04T04:42:40.063Z,93804.06
2018-05-04T04:45:08.849Z,93806.95
2018-05-04T04:47:38.958Z,93811.16
2018-05-04T04:50:07.346Z,93815.62
2018-05-04T04:52:35.812Z,93817.66
2018-05-04T04:55:04.231Z,93819.97
2018-05-04T04:57:34.640Z,93812.98
2018-05-04T05:00:03.093Z,93814.03
2018-05-04T05:02:31.460Z,93821.09
2018-05-04T05:05:01.274Z,93817.97
2018-05-04T05:07:30.208Z,93825.17
2018-05-04T05:09:58.624Z,93828.34
2018-05-04T05:12:28.499Z,93818.12
2018-05-04T05:14:56.870Z,93818.48
2018-05-04T05:17:26.898Z,93813.45
2018-05-04T05:19:58.774Z,93814.04
2018-05-04T05:22:27.204Z,93817.25
2018-05-04T05:24:55.676Z,93815.12
2018-05-04T05:27:24.071Z,93815.91
2018-05-04T05:29:52.488Z,93811.01
2018-05-04T05:32:20.950Z,93806.73
2018-05-04T05:34:49.341Z,93802.66
2018-05-04T05:37:17.784Z,93804.95
2018-05-04T05:39:46.320Z,93804.16
2018-05-04T05:42:16.016Z,93802.76
2018-05-04T05:44:44.419Z,93807.53
2018-05-04T05:47:13.243Z,93814.52
2018-05-04T05:49:41.660Z,93813.36
2018-05-04T05:52:10.140Z,93814.69
2018-05-04T05:54:38.571Z,93827.91
2018-05-04T05:57:07.012Z,93821.30
2018-05-04T05:59:35.431Z,93819.20
2018-05-04T06:02:03.875Z,93820.97
2018-05-04T06:04:34.718Z,93813.59
2018-05-04T06:07:03.435Z,93819.56
2018-05-04T06:09:31.871Z,93820.52
2018-05-04T06:12:00.293Z,93826.41
2018-05-04T06:14:29.806Z,93825.80
2018-05-04T06:16:58.152Z,93825.39
2018-05-04T06:19:27.765Z,93832.27
2018-05-04T06:21:56.471Z,93827.21
2018-05-04T06:24:24.911Z,93835.10
2018-05-04T06:26:53.313Z,93827.81
2018-05-04T06:29:21.720Z,93827.52
2018-05-04T06:31:50.094Z,93818.78
2018-05-04T06:34:18.521Z,93817.59
2018-05-04T06:36:47.970Z,93822.95
2018-05-04T06:39:16.490Z,93820.88
2018-05-04T06:41:46.218Z,93813.61
2018-05-04T06:44:14.636Z,93811.37
2018-05-04T06:46:43.053Z,93824.05
2018-05-04T06:49:11.559Z,93833.66
2018-05-04T06:51:39.943Z,93828.91
2018-05-04T06:54:09.352Z,93822.94
2018-05-04T06:56:37.803Z,93826.18
2018-05-04T06:59:07.287Z,93828.42
2018-05-04T07:01:37.100Z,93827.41
2018-05-04T07:04:05.625Z,93825.67
2018-05-04T07:06:35.366Z,93829.25
2018-05-04T07:09:04.403Z,93829.20
2018-05-04T07:11:33.704Z,93825.90
2018-05-04T07:14:01.059Z,93825.16
2018-05-04T07:16:28.351Z,93823.77
2018-05-04T07:18:55.697Z,93829.31
2018-05-04T07:21:23.060Z,93817.70
2018-05-04T07:23:50.435Z,93820.82
2018-05-04T07:26:17.839Z,93816.62
2018-05-04T07:28:45.242Z,93826.80
2018-05-04T07:31:12.612Z,93816.84
2018-05-04T07:33:40.260Z,93820.45
2018-05-04T07:36:07.618Z,93820.53
2018-05-04T07:38:34.886Z,93821.09
2018-05-04T07:41:02.966Z,93813.13
2018-05-04T07:43:32.509Z,93831.64
2018-05-04T07:45:59.808Z,93848.91
2018-05-04T07:48:27.156Z,93828.05
2018-05-04T07:50:54.563Z,93834.03
2018-05-04T07:53:21.936Z,93838.30
2018-05-04T07:55:52.712Z,93833.64
2018-05-04T07:58:20.049Z,93830.31
2018-05-04T08:00:47.316Z,93832.45
2018-05-04T08:03:14.717Z,93838.95
2018-05-04T08:05:42.056Z,93835.06
2018-05-04T08:08:12.823Z,93844.91
2018-05-04T08:10:40.154Z,93841.49
2018-05-04T08:13:10.943Z,93841.39
2018-05-04T08:15:38.304Z,93832.58
2018-05-04T08:18:06.668Z,93825.86
2018-05-04T08:20:33.997Z,93829.94
2018-05-04T08:23:01.401Z,93834.66
2018-05-04T08:25:28.753Z,93829.66
2018-05-04T08:27:57.307Z,93829.31
2018-05-04T08:30:24.641Z,93830.08
2018-05-04T08:32:55.395Z,93838.14
2018-05-04T08:35:23.680Z,93841.95
2018-05-04T08:37:54.352Z,93837.98
2018-05-04T08:40:21.706Z,93825.40
2018-05-04T08:42:49.314Z,93823.06
2018-05-04T08:45:16.591Z,93831.33
2018-05-04T08:47:45.070Z,93835.91
2018-05-04T08:50:12.388Z,93840.42
2018-05-04T08:52:41.891Z,93833.37
2018-05-04T08:55:10.311Z,93836.83
2018-05-04T08:57:37.703Z,93831.21
2018-05-04T09:00:08.207Z,93826.77
2018-05-04T09:02:35.554Z,93826.38
2018-05-04T09:05:03.957Z,93809.02
2018-05-04T09:07:31.236Z,93819.02
2018-05-04T09:09:59.524Z,93816.80
2018-05-04T09:12:26.841Z,93808.36
2018-05-04T09:14:54.166Z,93808.14
2018-05-04T09:17:21.540Z,93803.30
2018-05-04T09:19:48.918Z,93805.76
2018-05-04T09:22:16.265Z,93797.13
2018-05-04T09:24:43.578Z,93795.91
2018-05-04T09:27:10.925Z,93805.27
2018-05-04T09:29:39.288Z,93815.25
2018-05-04T09:32:07.709Z,93826.14
2018-05-04T09:34:37.588Z,93824.66
2018-05-04T09:37:05.971Z,93821.91
2018-05-04T09:39:35.519Z,93823.36
2018-05-04T09:42:03.967Z,93823.05
2018-05-04T09:44:32.688Z,93822.95
2018-05-04T09:47:01.067Z,93818.44
2018-05-04T09:49:29.584Z,93820.83
2018-05-04T09:51:58.050Z,93829.83
2018-05-04T09:54:26.434Z,93830.36
2018-05-04T09:56:55.943Z,93834.20
2018-05-04T09:59:24.391Z,93824.54
2018-05-04T10:01:52.798Z,93819.95
2018-05-04T10:04:21.348Z,93825.44
2018-05-04T10:06:49.748Z,93827.19
2018-05-04T10:09:18.161Z,93832.20
2018-05-04T10:11:46.599Z,93829.80
2018-05-04T10:14:15.031Z,93834.63
2018-05-04T10:16:43.595Z,93836.73
2018-05-04T10:19:12.264Z,93838.66
2018-05-04T10:21:40.702Z,93827.38
2018-05-04T10:24:09.198Z,93842.55
2018-05-04T10:26:37.468Z,93822.17
2018-05-04T10:29:06.893Z,93833.00
2018-05-04T10:31:35.364Z,93819.78
2018-05-04T10:34:03.836Z,93818.25
2018-05-04T10:36:32.308Z,93826.53
2018-05-04T10:39:01.096Z,93824.63
2018-05-04T10:41:29.564Z,93825.23
2018-05-04T10:43:57.963Z,93832.28
2018-05-04T10:46:26.452Z,93827.37
2018-05-04T10:48:54.846Z,93815.40
2018-05-04T10:51:24.284Z,93828.27
2018-05-04T10:53:53.766Z,93835.33
2018-05-04T10:56:23.124Z,93827.83
2018-05-04T10:58:51.635Z,93827.86
2018-05-04T11:01:20.450Z,93826.02
2018-05-04T11:03:48.848Z,93830.02
2018-05-04T11:06:18.329Z,93835.98
2018-05-04T11:08:46.737Z,93835.00
2018-05-04T11:11:15.203Z,93834.54
2018-05-04T11:13:43.743Z,93836.23
2018-05-04T11:16:13.253Z,93835.84
2018-05-04T11:18:41.671Z,93829.50
2018-05-04T11:21:10.089Z,93833.35
2018-05-04T11:23:38.522Z,93835.04
2018-05-04T11:26:07.948Z,93823.09
2018-05-04T11:28:36.450Z,93822.72
2018-05-04T11:31:05.195Z,93812.48
2018-05-04T11:33:33.689Z,93820.92
2018-05-04T11:36:02.139Z,93815.59
2018-05-04T11:38:30.583Z,93817.47
2018-05-04T11:40:58.401Z,93825.20
2018-05-04T11:43:26.843Z,93820.03
2018-05-04T11:45:55.267Z,93824.06
2018-05-04T11:48:23.676Z,93825.22
2018-05-04T11:50:52.074Z,93843.02
2018-05-04T11:53:20.519Z,93828.16
2018-05-04T11:55:48.994Z,93829.25
2018-05-04T11:58:17.403Z,93823.66
2018-05-04T12:00:46.949Z,93830.94
2018-05-04T12:03:15.442Z,93816.23
2018-05-04T12:05:43.866Z,93806.33
2018-05-04T12:08:12.386Z,93805.98
2018-05-04T12:10:40.840Z,93798.66
2018-05-04T12:13:09.594Z,93808.70
2018-05-04T12:15:38.792Z,93807.41
2018-05-04T12:18:07.200Z,93799.78
2018-05-04T12:20:35.722Z,93812.05
2018-05-04T12:23:04.673Z,93806.64
2018-05-04T12:25:33.171Z,93828.64
2018-05-04T12:28:01.569Z,93820.49
2018-05-04T12:30:30.030Z,93808.30
2018-05-04T12:32:58.478Z,93806.72
2018-05-04T12:35:27.961Z,93824.44
2018-05-04T12:37:57.419Z,93820.53
2018-05-04T12:40:25.951Z,93824.25
2018-05-04T12:42:54.401Z,93820.78
2018-05-04T12:45:22.805Z,93799.28
2018-05-04T12:47:51.170Z,93826.51
2018-05-04T12:50:19.624Z,93819.11
2018-05-04T12:52:48.051Z,93813.20
2018-05-04T12:55:17.520Z,93813.34
2018-05-04T12:57:48.195Z,93817.09
2018-05-04T13:00:15.569Z,93814.12
2018-05-04T13:02:45.922Z,93815.35
2018-05-04T13:05:14.324Z,93812.20
2018-05-04T13:07:42.727Z,93819.63
2018-05-04T13:10:11.196Z,93813.76
2018-05-04T13:12:40.577Z,93822.70
2018-05-04T13:15:09.038Z,93809.42
2018-05-04T13:17:38.492Z,93805.52
2018-05-04T13:20:06.934Z,93802.98
2018-05-04T13:22:35.359Z,93801.33
2018-05-04T13:25:03.835Z,93811.02
2018-05-04T13:27:32.288Z,93817.98
2018-05-04T13:30:00.702Z,93807.97
2018-05-04T13:32:29.204Z,93816.77
2018-05-04T13:34:57.556Z,93796.02
2018-05-04T13:37:25.963Z,93798.59
2018-05-04T13:39:53.404Z,93801.33
2018-05-04T13:42:23.258Z,93798.64
2018-05-04T13:44:51.659Z,93806.00
2018-05-04T13:47:21.095Z,93797.95
2018-05-04T13:49:49.489Z,93795.18
2018-05-04T13:52:17.899Z,93792.50
2018-05-04T13:54:46.320Z,93799.64
2018-05-04T13:57:14.769Z,93798.59
2018-05-04T13:59:43.244Z,93802.31
2018-05-04T14:02:11.150Z,93797.89
2018-05-04T14:04:40.902Z,93796.92
2018-05-04T14:07:09.363Z,93801.62
2018-05-04T14:09:39.012Z,93797.42
2018-05-04T14:12:07.382Z,93792.36
2018-05-04T14:14:34.741Z,93787.69
2018-05-04T14:17:04.858Z,93796.05
2018-05-04T14:19:33.258Z,93793.92
2018-05-04T14:22:01.662Z,93789.25
2018-05-04T14:24:29.025Z,93786.25
2018-05-04T14:26:59.056Z,93777.58
2018-05-04T14:29:27.465Z,93788.77
2018-05-04T14:31:55.874Z,93790.77
2018-05-04T14:34:24.266Z,93789.30
2018-05-04T14:36:52.663Z,93793.61
2018-05-04T14:39:21.054Z,93780.92
2018-05-04T14:41:49.480Z,93764.56
2018-05-04T14:44:18.024Z,93790.75
2018-05-04T14:46:47.099Z,93781.48
2018-05-04T14:49:15.416Z,93786.84
2018-05-04T14:51:43.685Z,93791.82
2018-05-04T14:54:13.172Z,93794.14
2018-05-04T14:56:41.584Z,93800.52
2018-05-04T14:59:10.360Z,93790.59
2018-05-04T15:01:38.772Z,93789.37
2018-05-04T15:04:07.230Z,93794.09
2018-05-04T15:06:35.707Z,93789.36
2018-05-04T15:09:05.110Z,93791.84
2018-05-04T15:11:33.181Z,93802.65
2018-05-04T15:14:02.676Z,93803.73
2018-05-04T15:16:31.004Z,93798.49
2018-05-04T15:19:00.668Z,93793.12
2018-05-04T15:21:28.820Z,93800.34
2018-05-04T15:23:58.320Z,93813.45
2018-05-04T15:26:26.737Z,93807.95
2018-05-04T15:28:55.146Z,93804.90
2018-05-04T15:31:23.565Z,93812.81
2018-05-04T15:33:52.019Z,93801.55
2018-05-04T15:36:20.447Z,93803.73
2018-05-04T15:38:49.134Z,93804.81
2018-05-04T15:41:18.630Z,93807.08
2018-05-04T15:43:47.048Z,93800.26
2018-05-04T15:46:15.714Z,93800.02
2018-05-04T15:48:49.264Z,93807.16
2018-05-04T15:51:25.659Z,93804.17
2018-05-04T15:53:54.074Z,93805.59
2018-05-04T15:56:22.478Z,93809.67
2018-05-04T15:58:50.979Z,93789.34
2018-05-04T16:01:19.425Z,93812.49
2018-05-04T16:03:47.867Z,93800.42
2018-05-04T16:06:17.528Z,93806.32
2018-05-04T16:08:45.989Z,93811.64
2018-05-04T16:11:14.695Z,93808.41
2018-05-04T16:13:44.295Z,93808.89
2018-05-04T16:16:13.737Z,93811.92
2018-05-04T16:18:43.215Z,93817.86
2018-05-04T16:21:12.637Z,93821.39
2018-05-04T16:23:41.071Z,93809.67
2018-05-04T16:26:09.535Z,93819.73
2018-05-04T16:28:37.942Z,93811.55
2018-05-04T16:31:06.363Z,93821.60
2018-05-04T16:33:34.791Z,93813.70
2018-05-04T16:36:02.149Z,93817.33
2018-05-04T16:38:32.818Z,93813.30
2018-05-04T16:41:01.519Z,93823.12
2018-05-04T16:43:29.984Z,93825.85
2018-05-04T16:45:58.383Z,93828.91
2018-05-04T16:48:32.982Z,93825.05
2018-05-04T16:51:01.343Z,93826.89
2018-05-04T16:53:32.179Z,93826.36
2018-05-04T16:56:00.699Z,93826.95
2018-05-04T16:58:31.151Z,93825.48
2018-05-04T17:00:59.564Z,93833.30
2018-05-04T17:03:28.092Z,93832.02
2018-05-04T17:05:56.571Z,93843.77
2018-05-04T17:08:25.043Z,93845.95
2018-05-04T17:10:54.899Z,93836.42
2018-05-04T17:13:23.383Z,93843.36
2018-05-04T17:15:53.227Z,93837.36
2018-05-04T17:18:21.647Z,93845.72
2018-05-04T17:20:50.163Z,93853.57
2018-05-04T17:23:18.679Z,93850.27
2018-05-04T17:25:48.427Z,93854.56
2018-05-04T17:28:16.897Z,93857.11
2018-05-04T17:30:46.899Z,93860.39
2018-05-04T17:33:15.405Z,93858.88
2018-05-04T17:35:43.891Z,93866.34
2018-05-04T17:38:12.280Z,93864.75
2018-05-04T17:40:40.663Z,93862.61
2018-05-04T17:43:09.143Z,93863.99
2018-05-04T17:45:37.667Z,93868.31
2018-05-04T17:48:06.476Z,93873.98
2018-05-04T17:50:34.905Z,93876.54
2018-05-04T17:53:03.362Z,93873.78
2018-05-04T17:55:31.839Z,93877.40
2018-05-04T17:58:03.746Z,93885.09
2018-05-04T18:00:32.174Z,93880.05
2018-05-04T18:03:00.718Z,93884.63
2018-05-04T18:05:32.537Z,93884.20
2018-05-04T18:08:01.045Z,93887.61
2018-05-04T18:10:30.987Z,93883.86
2018-05-04T18:12:59.402Z,93890.05
2018-05-04T18:15:27.857Z,93891.78
2018-05-04T18:17:56.304Z,93894.41
2018-05-04T18:20:24.766Z,93889.82
2018-05-04T18:22:53.283Z,93901.02
2018-05-04T18:25:21.778Z,93899.90
2018-05-04T18:27:50.372Z,93900.22
2018-05-04T18:30:18.951Z,93908.25
2018-05-04T18:32:47.398Z,93909.95
2018-05-04T18:35:17.245Z,93912.83
2018-05-04T18:37:48.438Z,93917.83
2018-05-04T18:40:16.928Z,93913.13
2018-05-04T18:42:46.694Z,93915.00
2018-05-04T18:45:16.676Z,93925.83
2018-05-04T18:47:46.138Z,93921.46
2018-05-04T18:50:14.623Z,93923.91
2018-05-04T18:52:44.660Z,93922.61
2018-05-04T18:55:13.101Z,93926.41
2018-05-04T18:57:41.487Z,93932.95
2018-05-04T19:00:09.922Z,93929.71
2018-05-04T19:02:44.355Z,93943.13
2018-05-04T19:05:12.839Z,93940.78
2018-05-04T19:07:41.301Z,93940.80
2018-05-04T19:10:09.706Z,93938.23
2018-05-04T19:12:38.200Z,93951.80
2018-05-04T19:15:06.604Z,93950.09
2018-05-04T19:17:35.067Z,93952.31
2018-05-04T19:20:03.479Z,93952.83
2018-05-04T19:22:31.921Z,93956.59
2018-05-04T19:25:01.896Z,93961.61
2018-05-04T19:27:31.822Z,93953.48
2018-05-04T19:30:00.321Z,93958.55
2018-05-04T19:32:28.769Z,93963.16
2018-05-04T19:34:57.178Z,93972.22
2018-05-04T19:37:25.628Z,93971.05
2018-05-04T19:39:57.773Z,93977.11
2018-05-04T19:42:26.171Z,93972.66
2018-05-04T19:44:54.639Z,93982.45
2018-05-04T19:47:23.060Z,93984.77
2018-05-04T19:49:51.552Z,93992.12
2018-05-04T19:52:20.029Z,93994.77
2018-05-04T19:54:48.464Z,94000.14
2018-05-04T19:57:16.929Z,94001.05
2018-05-04T19:59:45.432Z,94004.28
2018-05-04T20:02:13.857Z,94007.20
2018-05-04T20:04:42.289Z,94009.72
2018-05-04T20:07:12.217Z,94009.67
2018-05-04T20:09:40.666Z,94003.73
2018-05-04T20:12:09.113Z,94000.94
2018-05-04T20:14:37.527Z,94000.33
2018-05-04T20:17:07.509Z,94014.17
2018-05-04T20:19:36.003Z,94008.52
2018-05-04T20:22:05.908Z,94009.66
2018-05-04T20:24:34.306Z,94011.71
2018-05-04T20:27:04.345Z,94013.23
2018-05-04T20:29:32.799Z,94020.73
2018-05-04T20:32:02.669Z,94009.48
2018-05-04T20:34:31.110Z,94012.70
2018-05-04T20:37:01.016Z,94007.16
2018-05-04T20:39:29.794Z,94024.38
2018-05-04T20:41:58.161Z,94018.78
2018-05-04T20:44:26.643Z,94017.48
2018-05-04T20:46:55.172Z,94018.37
2018-05-04T20:49:27.552Z,94019.59
2018-05-04T20:51:56.096Z,94022.64
2018-05-04T20:54:24.403Z,94021.08
2018-05-04T20:56:52.908Z,94014.30
2018-05-04T20:59:21.395Z,94022.05
2018-05-04T21:01:51.326Z,94017.97
2018-05-04T21:04:19.838Z,94018.43
2018-05-04T21:06:48.224Z,94028.27
2018-05-04T21:09:16.671Z,94027.10
2018-05-04T21:11:45.168Z,94038.95
2018-05-04T21:14:13.609Z,94038.53
2018-05-04T21:16:43.503Z,94045.48
2018-05-04T21:19:13.603Z,94038.84
2018-05-04T21:21:45.427Z,94040.12
2018-05-04T21:24:13.936Z,94036.47
2018-05-04T21:26:42.364Z,94033.69
2018-05-04T21:29:10.799Z,94033.02
2018-05-04T21:31:39.207Z,94037.88
2018-05-04T21:34:07.576Z,94035.84
2018-05-04T21:36:36.039Z,94039.96
2018-05-04T21:39:04.517Z,94040.37
2018-05-04T21:41:34.307Z,94035.14
2018-05-04T21:44:02.881Z,94040.72
2018-05-04T21:46:31.336Z,94038.95
2018-05-04T21:48:59.787Z,94031.84
2018-05-04T21:51:28.395Z,94041.44
2018-05-04T21:53:56.905Z,94044.48
2018-05-04T21:56:25.323Z,94036.97
2018-05-04T21:58:54.832Z,94042.48
2018-05-04T22:01:23.244Z,94040.38
2018-05-04T22:03:51.676Z,94042.86
2018-05-04T22:06:20.151Z,94046.11
2018-05-04T22:08:48.607Z,94046.11
2018-05-04T22:11:17.092Z,94046.39
2018-05-04T22:13:45.532Z,94048.25
2018-05-04T22:16:13.955Z,94049.44
2018-05-04T22:18:42.400Z,94049.10
2018-05-04T22:21:10.849Z,94049.64
2018-05-04T22:23:39.277Z,94060.38
2018-05-04T22:26:07.640Z,94052.21
2018-05-04T22:28:36.115Z,94057.39
2018-05-04T22:31:04.536Z,94048.17
2018-05-04T22:33:34.363Z,94053.66
2018-05-04T22:36:02.829Z,94059.95
2018-05-04T22:38:31.553Z,94059.50
2018-05-04T22:40:59.999Z,94059.38
2018-05-04T22:43:28.423Z,94057.22
2018-05-04T22:45:56.867Z,94062.09
2018-05-04T22:48:25.286Z,94051.95
2018-05-04T22:50:53.745Z,94060.50
2018-05-04T22:53:22.159Z,94056.03
2018-05-04T22:55:50.611Z,94060.75
2018-05-04T22:58:20.603Z,94064.56
2018-05-04T23:00:49.083Z,94068.66
2018-05-04T23:03:18.871Z,94060.98
2018-05-04T23:05:47.307Z,94060.38
2018-05-04T23:08:15.702Z,94056.85
2018-05-04T23:10:44.427Z,94052.39
2018-05-04T23:13:12.843Z,94053.90
2018-05-04T23:15:43.236Z,94062.42
2018-05-04T23:18:11.667Z,94058.27
2018-05-04T23:20:40.115Z,94059.09
2018-05-04T23:23:08.500Z,94055.53
2018-05-04T23:25:38.487Z,94057.88
2018-05-04T23:28:06.904Z,94059.22
2018-05-04T23:30:35.643Z,94064.08
2018-05-04T23:33:05.536Z,94060.45
2018-05-04T23:35:35.539Z,94062.58
2018-05-04T23:38:05.314Z,94062.58
2018-05-04T23:40:37.207Z,94064.30
2018-05-04T23:43:05.616Z,94062.07
2018-05-04T23:45:36.036Z,94066.10
2018-05-04T23:48:05.943Z,94066.02
2018-05-04T23:50:34.303Z,94068.31
2018-05-04T23:53:02.748Z,94063.48
2018-05-04T23:55:30.156Z,94070.75
2018-05-04T23:57:57.504Z,94062.66
